sensor_id;sensor_type;location;lat;lon;timestamp;P1;durP1;ratioP1;P2;durP2;ratioP2
18196;SDS011;9224;52.422;13.024;2024-03-07T00:00:02;453.77;;;186.57;;
18196;SDS011;9224;52.422;13.024;2024-03-07T00:02:32;455.77;;;184.87;;
18196;SDS011;9224;52.422;13.024;2024-03-07T00:04:59;412.47;;;177.80;;
18196;SDS011;9224;52.422;13.024;2024-03-07T00:07:26;374.50;;;168.23;;
18196;SDS011;9224;52.422;13.024;2024-03-07T00:09:52;355.00;;;163.50;;
18196;SDS011;9224;52.422;13.024;2024-03-07T00:12:21;420.77;;;178.10;;
18196;SDS011;9224;52.422;13.024;2024-03-07T00:14:47;346.37;;;162.17;;
18196;SDS011;9224;52.422;13.024;2024-03-07T00:17:16;352.30;;;164.53;;
18196;SDS011;9224;52.422;13.024;2024-03-07T00:19:42;373.03;;;167.90;;
18196;SDS011;9224;52.422;13.024;2024-03-07T00:22:09;363.20;;;164.97;;
18196;SDS011;9224;52.422;13.024;2024-03-07T00:24:36;359.53;;;164.70;;
18196;SDS011;9224;52.422;13.024;2024-03-07T00:27:04;348.77;;;162.60;;
18196;SDS011;9224;52.422;13.024;2024-03-07T00:29:30;537.13;;;210.03;;
18196;SDS011;9224;52.422;13.024;2024-03-07T00:32:00;509.43;;;203.37;;
18196;SDS011;9224;52.422;13.024;2024-03-07T00:34:29;355.07;;;163.23;;
18196;SDS011;9224;52.422;13.024;2024-03-07T00:36:56;416.87;;;178.70;;
18196;SDS011;9224;52.422;13.024;2024-03-07T00:39:24;357.47;;;167.47;;
18196;SDS011;9224;52.422;13.024;2024-03-07T00:41:50;353.30;;;162.93;;
18196;SDS011;9224;52.422;13.024;2024-03-07T00:44:17;344.47;;;159.80;;
18196;SDS011;9224;52.422;13.024;2024-03-07T00:46:43;335.97;;;159.40;;
18196;SDS011;9224;52.422;13.024;2024-03-07T00:49:11;334.57;;;157.90;;
18196;SDS011;9224;52.422;13.024;2024-03-07T00:51:39;333.00;;;159.57;;
18196;SDS011;9224;52.422;13.024;2024-03-07T00:54:05;335.30;;;159.60;;
18196;SDS011;9224;52.422;13.024;2024-03-07T00:56:32;334.57;;;156.47;;
18196;SDS011;9224;52.422;13.024;2024-03-07T00:58:58;328.07;;;157.53;;
18196;SDS011;9224;52.422;13.024;2024-03-07T01:01:25;324.20;;;156.60;;
18196;SDS011;9224;52.422;13.024;2024-03-07T01:03:52;330.80;;;157.40;;
18196;SDS011;9224;52.422;13.024;2024-03-07T01:06:18;334.50;;;157.70;;
18196;SDS011;9224;52.422;13.024;2024-03-07T01:08:46;340.67;;;159.70;;
18196;SDS011;9224;52.422;13.024;2024-03-07T01:11:13;350.37;;;163.43;;
18196;SDS011;9224;52.422;13.024;2024-03-07T01:13:40;339.00;;;160.60;;
18196;SDS011;9224;52.422;13.024;2024-03-07T01:16:07;333.63;;;157.73;;
18196;SDS011;9224;52.422;13.024;2024-03-07T01:18:33;346.00;;;161.73;;
18196;SDS011;9224;52.422;13.024;2024-03-07T01:21:00;347.03;;;159.60;;
18196;SDS011;9224;52.422;13.024;2024-03-07T01:23:27;377.07;;;167.77;;
18196;SDS011;9224;52.422;13.024;2024-03-07T01:25:56;339.13;;;157.77;;
18196;SDS011;9224;52.422;13.024;2024-03-07T01:28:23;347.80;;;162.40;;
18196;SDS011;9224;52.422;13.024;2024-03-07T01:30:50;346.33;;;161.57;;
18196;SDS011;9224;52.422;13.024;2024-03-07T01:33:16;354.23;;;161.97;;
18196;SDS011;9224;52.422;13.024;2024-03-07T01:35:44;336.80;;;157.33;;
18196;SDS011;9224;52.422;13.024;2024-03-07T01:38:11;340.40;;;156.57;;
18196;SDS011;9224;52.422;13.024;2024-03-07T01:40:39;358.03;;;162.73;;
18196;SDS011;9224;52.422;13.024;2024-03-07T01:43:07;332.40;;;155.83;;
18196;SDS011;9224;52.422;13.024;2024-03-07T01:45:35;353.27;;;163.70;;
18196;SDS011;9224;52.422;13.024;2024-03-07T01:48:03;347.07;;;162.33;;
18196;SDS011;9224;52.422;13.024;2024-03-07T01:50:31;351.90;;;160.10;;
18196;SDS011;9224;52.422;13.024;2024-03-07T01:52:57;366.63;;;166.83;;
18196;SDS011;9224;52.422;13.024;2024-03-07T01:55:25;341.17;;;158.33;;
18196;SDS011;9224;52.422;13.024;2024-03-07T01:57:53;347.03;;;162.20;;
18196;SDS011;9224;52.422;13.024;2024-03-07T02:00:23;361.30;;;166.17;;
18196;SDS011;9224;52.422;13.024;2024-03-07T02:02:49;373.37;;;167.23;;
18196;SDS011;9224;52.422;13.024;2024-03-07T02:05:16;363.60;;;165.17;;
18196;SDS011;9224;52.422;13.024;2024-03-07T02:07:43;364.13;;;165.17;;
18196;SDS011;9224;52.422;13.024;2024-03-07T02:10:09;372.07;;;165.67;;
18196;SDS011;9224;52.422;13.024;2024-03-07T02:12:36;406.17;;;174.53;;
18196;SDS011;9224;52.422;13.024;2024-03-07T02:15:03;378.53;;;166.70;;
18196;SDS011;9224;52.422;13.024;2024-03-07T02:17:31;381.27;;;165.83;;
18196;SDS011;9224;52.422;13.024;2024-03-07T02:19:58;390.43;;;171.43;;
18196;SDS011;9224;52.422;13.024;2024-03-07T02:22:26;380.63;;;166.83;;
18196;SDS011;9224;52.422;13.024;2024-03-07T02:24:53;380.17;;;167.13;;
18196;SDS011;9224;52.422;13.024;2024-03-07T02:27:18;374.43;;;166.43;;
18196;SDS011;9224;52.422;13.024;2024-03-07T02:29:45;394.03;;;170.63;;
18196;SDS011;9224;52.422;13.024;2024-03-07T02:32:12;388.13;;;168.17;;
18196;SDS011;9224;52.422;13.024;2024-03-07T02:34:38;468.90;;;188.33;;
18196;SDS011;9224;52.422;13.024;2024-03-07T02:37:05;391.93;;;171.70;;
18196;SDS011;9224;52.422;13.024;2024-03-07T02:39:35;381.00;;;166.77;;
18196;SDS011;9224;52.422;13.024;2024-03-07T02:42:02;379.90;;;168.57;;
18196;SDS011;9224;52.422;13.024;2024-03-07T02:44:29;369.53;;;164.47;;
18196;SDS011;9224;52.422;13.024;2024-03-07T02:46:56;373.37;;;163.87;;
18196;SDS011;9224;52.422;13.024;2024-03-07T02:49:23;365.47;;;163.23;;
18196;SDS011;9224;52.422;13.024;2024-03-07T02:51:50;349.33;;;160.37;;
18196;SDS011;9224;52.422;13.024;2024-03-07T02:54:16;344.73;;;159.33;;
18196;SDS011;9224;52.422;13.024;2024-03-07T02:56:44;370.43;;;163.33;;
18196;SDS011;9224;52.422;13.024;2024-03-07T02:59:11;354.50;;;159.73;;
18196;SDS011;9224;52.422;13.024;2024-03-07T03:01:38;365.70;;;158.20;;
18196;SDS011;9224;52.422;13.024;2024-03-07T03:04:06;393.00;;;167.10;;
18196;SDS011;9224;52.422;13.024;2024-03-07T03:06:51;389.53;;;162.40;;
18196;SDS011;9224;52.422;13.024;2024-03-07T03:09:37;393.17;;;168.93;;
18196;SDS011;9224;52.422;13.024;2024-03-07T03:12:24;376.10;;;161.13;;
18196;SDS011;9224;52.422;13.024;2024-03-07T03:15:10;373.07;;;161.73;;
18196;SDS011;9224;52.422;13.024;2024-03-07T03:17:37;369.97;;;164.57;;
18196;SDS011;9224;52.422;13.024;2024-03-07T03:20:03;384.03;;;165.87;;
18196;SDS011;9224;52.422;13.024;2024-03-07T03:22:40;358.13;;;160.03;;
18196;SDS011;9224;52.422;13.024;2024-03-07T03:25:09;373.43;;;164.73;;
18196;SDS011;9224;52.422;13.024;2024-03-07T03:27:37;380.90;;;163.47;;
18196;SDS011;9224;52.422;13.024;2024-03-07T03:30:06;481.97;;;187.37;;
18196;SDS011;9224;52.422;13.024;2024-03-07T03:32:38;380.73;;;163.17;;
18196;SDS011;9224;52.422;13.024;2024-03-07T03:35:05;373.47;;;164.63;;
18196;SDS011;9224;52.422;13.024;2024-03-07T03:37:34;381.10;;;162.50;;
18196;SDS011;9224;52.422;13.024;2024-03-07T03:40:00;353.93;;;159.73;;
18196;SDS011;9224;52.422;13.024;2024-03-07T03:42:29;382.77;;;161.63;;
18196;SDS011;9224;52.422;13.024;2024-03-07T03:44:57;399.37;;;169.07;;
18196;SDS011;9224;52.422;13.024;2024-03-07T03:47:24;387.50;;;165.47;;
18196;SDS011;9224;52.422;13.024;2024-03-07T03:49:52;477.20;;;192.67;;
18196;SDS011;9224;52.422;13.024;2024-03-07T03:52:19;467.77;;;188.43;;
18196;SDS011;9224;52.422;13.024;2024-03-07T03:54:45;505.67;;;201.43;;
18196;SDS011;9224;52.422;13.024;2024-03-07T03:57:13;389.73;;;166.53;;
18196;SDS011;9224;52.422;13.024;2024-03-07T03:59:42;389.37;;;166.23;;
18196;SDS011;9224;52.422;13.024;2024-03-07T04:02:11;391.20;;;168.90;;
18196;SDS011;9224;52.422;13.024;2024-03-07T04:04:38;488.10;;;195.77;;
18196;SDS011;9224;52.422;13.024;2024-03-07T04:07:05;481.50;;;192.20;;
18196;SDS011;9224;52.422;13.024;2024-03-07T04:09:31;430.87;;;183.57;;
18196;SDS011;9224;52.422;13.024;2024-03-07T04:11:58;453.57;;;182.60;;
18196;SDS011;9224;52.422;13.024;2024-03-07T04:14:25;704.87;;;306.73;;
18196;SDS011;9224;52.422;13.024;2024-03-07T04:16:52;396.53;;;171.07;;
18196;SDS011;9224;52.422;13.024;2024-03-07T04:19:23;608.63;;;244.67;;
18196;SDS011;9224;52.422;13.024;2024-03-07T04:21:50;411.50;;;175.30;;
18196;SDS011;9224;52.422;13.024;2024-03-07T04:24:17;498.60;;;197.97;;
18196;SDS011;9224;52.422;13.024;2024-03-07T04:26:44;428.00;;;179.30;;
18196;SDS011;9224;52.422;13.024;2024-03-07T04:29:10;451.77;;;186.47;;
18196;SDS011;9224;52.422;13.024;2024-03-07T04:31:37;690.27;;;303.67;;
18196;SDS011;9224;52.422;13.024;2024-03-07T04:34:03;464.20;;;190.13;;
18196;SDS011;9224;52.422;13.024;2024-03-07T04:36:31;390.50;;;171.53;;
18196;SDS011;9224;52.422;13.024;2024-03-07T04:39:00;489.33;;;196.77;;
18196;SDS011;9224;52.422;13.024;2024-03-07T04:41:29;446.20;;;183.73;;
18196;SDS011;9224;52.422;13.024;2024-03-07T04:43:56;492.90;;;199.43;;
18196;SDS011;9224;52.422;13.024;2024-03-07T04:46:25;709.53;;;315.07;;
18196;SDS011;9224;52.422;13.024;2024-03-07T04:48:51;440.17;;;187.07;;
18196;SDS011;9224;52.422;13.024;2024-03-07T04:51:18;615.73;;;248.37;;
18196;SDS011;9224;52.422;13.024;2024-03-07T04:53:46;376.43;;;169.23;;
18196;SDS011;9224;52.422;13.024;2024-03-07T04:56:13;357.13;;;167.40;;
18196;SDS011;9224;52.422;13.024;2024-03-07T04:58:39;386.10;;;173.97;;
18196;SDS011;9224;52.422;13.024;2024-03-07T05:01:06;361.17;;;165.53;;
18196;SDS011;9224;52.422;13.024;2024-03-07T05:03:32;383.00;;;173.87;;
18196;SDS011;9224;52.422;13.024;2024-03-07T05:05:59;350.30;;;165.30;;
18196;SDS011;9224;52.422;13.024;2024-03-07T05:08:26;347.43;;;161.53;;
18196;SDS011;9224;52.422;13.024;2024-03-07T05:10:54;339.33;;;161.47;;
18196;SDS011;9224;52.422;13.024;2024-03-07T05:13:20;332.30;;;157.73;;
18196;SDS011;9224;52.422;13.024;2024-03-07T05:15:47;322.90;;;157.23;;
18196;SDS011;9224;52.422;13.024;2024-03-07T05:18:15;348.90;;;162.43;;
18196;SDS011;9224;52.422;13.024;2024-03-07T05:20:42;351.83;;;163.93;;
18196;SDS011;9224;52.422;13.024;2024-03-07T05:23:09;328.93;;;162.00;;
18196;SDS011;9224;52.422;13.024;2024-03-07T05:25:36;321.97;;;159.50;;
18196;SDS011;9224;52.422;13.024;2024-03-07T05:28:06;325.33;;;160.83;;
18196;SDS011;9224;52.422;13.024;2024-03-07T05:30:34;343.33;;;164.27;;
18196;SDS011;9224;52.422;13.024;2024-03-07T05:33:00;352.47;;;164.53;;
18196;SDS011;9224;52.422;13.024;2024-03-07T05:35:27;327.47;;;160.03;;
18196;SDS011;9224;52.422;13.024;2024-03-07T05:37:54;331.67;;;161.47;;
18196;SDS011;9224;52.422;13.024;2024-03-07T05:40:21;336.83;;;163.30;;
18196;SDS011;9224;52.422;13.024;2024-03-07T05:42:48;331.80;;;162.00;;
18196;SDS011;9224;52.422;13.024;2024-03-07T05:45:16;315.63;;;158.17;;
18196;SDS011;9224;52.422;13.024;2024-03-07T05:47:44;333.97;;;161.67;;
18196;SDS011;9224;52.422;13.024;2024-03-07T05:50:12;353.20;;;166.03;;
18196;SDS011;9224;52.422;13.024;2024-03-07T05:52:39;348.57;;;164.00;;
18196;SDS011;9224;52.422;13.024;2024-03-07T05:55:06;369.23;;;168.53;;
18196;SDS011;9224;52.422;13.024;2024-03-07T05:57:33;354.97;;;167.73;;
18196;SDS011;9224;52.422;13.024;2024-03-07T05:59:59;346.30;;;162.37;;
18196;SDS011;9224;52.422;13.024;2024-03-07T06:02:28;358.40;;;167.90;;
18196;SDS011;9224;52.422;13.024;2024-03-07T06:04:54;365.97;;;166.10;;
18196;SDS011;9224;52.422;13.024;2024-03-07T06:07:21;338.73;;;158.37;;
18196;SDS011;9224;52.422;13.024;2024-03-07T06:09:48;381.17;;;171.43;;
18196;SDS011;9224;52.422;13.024;2024-03-07T06:12:15;351.23;;;163.80;;
18196;SDS011;9224;52.422;13.024;2024-03-07T06:14:42;350.07;;;165.20;;
18196;SDS011;9224;52.422;13.024;2024-03-07T06:17:09;368.53;;;167.80;;
18196;SDS011;9224;52.422;13.024;2024-03-07T06:19:37;350.20;;;163.27;;
18196;SDS011;9224;52.422;13.024;2024-03-07T06:22:04;377.13;;;166.50;;
18196;SDS011;9224;52.422;13.024;2024-03-07T06:24:33;379.57;;;170.13;;
18196;SDS011;9224;52.422;13.024;2024-03-07T06:27:01;362.37;;;166.90;;
18196;SDS011;9224;52.422;13.024;2024-03-07T06:29:28;360.33;;;166.40;;
18196;SDS011;9224;52.422;13.024;2024-03-07T06:31:55;366.60;;;169.27;;
18196;SDS011;9224;52.422;13.024;2024-03-07T06:34:23;366.20;;;169.50;;
18196;SDS011;9224;52.422;13.024;2024-03-07T06:36:52;355.03;;;163.80;;
18196;SDS011;9224;52.422;13.024;2024-03-07T06:39:20;377.37;;;173.40;;
18196;SDS011;9224;52.422;13.024;2024-03-07T06:41:48;376.20;;;172.70;;
18196;SDS011;9224;52.422;13.024;2024-03-07T06:44:14;350.87;;;164.20;;
18196;SDS011;9224;52.422;13.024;2024-03-07T06:46:42;352.83;;;165.10;;
18196;SDS011;9224;52.422;13.024;2024-03-07T06:49:10;352.47;;;165.80;;
18196;SDS011;9224;52.422;13.024;2024-03-07T06:51:37;348.60;;;166.67;;
18196;SDS011;9224;52.422;13.024;2024-03-07T06:54:05;328.17;;;158.47;;
18196;SDS011;9224;52.422;13.024;2024-03-07T06:56:32;323.83;;;156.53;;
18196;SDS011;9224;52.422;13.024;2024-03-07T06:58:59;339.93;;;164.83;;
18196;SDS011;9224;52.422;13.024;2024-03-07T07:01:29;333.87;;;159.90;;
18196;SDS011;9224;52.422;13.024;2024-03-07T07:03:56;332.67;;;161.10;;
18196;SDS011;9224;52.422;13.024;2024-03-07T07:06:23;329.80;;;159.60;;
18196;SDS011;9224;52.422;13.024;2024-03-07T07:08:51;330.80;;;159.53;;
18196;SDS011;9224;52.422;13.024;2024-03-07T07:11:19;350.23;;;163.53;;
18196;SDS011;9224;52.422;13.024;2024-03-07T07:13:45;336.93;;;162.00;;
18196;SDS011;9224;52.422;13.024;2024-03-07T07:16:12;359.47;;;165.73;;
18196;SDS011;9224;52.422;13.024;2024-03-07T07:18:39;353.03;;;166.03;;
18196;SDS011;9224;52.422;13.024;2024-03-07T07:21:05;341.17;;;161.70;;
18196;SDS011;9224;52.422;13.024;2024-03-07T07:23:35;335.17;;;160.60;;
18196;SDS011;9224;52.422;13.024;2024-03-07T07:26:02;339.87;;;160.60;;
18196;SDS011;9224;52.422;13.024;2024-03-07T07:28:32;332.73;;;160.57;;
18196;SDS011;9224;52.422;13.024;2024-03-07T07:31:01;334.50;;;159.27;;
18196;SDS011;9224;52.422;13.024;2024-03-07T07:33:28;326.43;;;158.60;;
18196;SDS011;9224;52.422;13.024;2024-03-07T07:35:54;343.43;;;160.53;;
18196;SDS011;9224;52.422;13.024;2024-03-07T07:38:21;329.70;;;155.03;;
18196;SDS011;9224;52.422;13.024;2024-03-07T07:40:47;332.00;;;158.17;;
18196;SDS011;9224;52.422;13.024;2024-03-07T07:43:14;319.93;;;154.50;;
18196;SDS011;9224;52.422;13.024;2024-03-07T07:45:42;311.67;;;153.90;;
18196;SDS011;9224;52.422;13.024;2024-03-07T07:48:09;321.10;;;155.43;;
18196;SDS011;9224;52.422;13.024;2024-03-07T07:50:36;337.13;;;156.77;;
18196;SDS011;9224;52.422;13.024;2024-03-07T07:53:05;325.70;;;154.60;;
18196;SDS011;9224;52.422;13.024;2024-03-07T07:55:34;340.37;;;156.23;;
18196;SDS011;9224;52.422;13.024;2024-03-07T07:58:01;335.20;;;153.47;;
18196;SDS011;9224;52.422;13.024;2024-03-07T08:00:29;364.60;;;159.03;;
18196;SDS011;9224;52.422;13.024;2024-03-07T08:02:57;337.73;;;156.50;;
18196;SDS011;9224;52.422;13.024;2024-03-07T08:05:26;339.77;;;154.77;;
18196;SDS011;9224;52.422;13.024;2024-03-07T08:07:54;336.80;;;155.13;;
18196;SDS011;9224;52.422;13.024;2024-03-07T08:10:23;336.83;;;153.67;;
18196;SDS011;9224;52.422;13.024;2024-03-07T08:12:51;336.50;;;153.40;;
18196;SDS011;9224;52.422;13.024;2024-03-07T08:15:18;338.70;;;154.67;;
18196;SDS011;9224;52.422;13.024;2024-03-07T08:17:47;334.43;;;154.30;;
18196;SDS011;9224;52.422;13.024;2024-03-07T08:20:15;333.03;;;154.23;;
18196;SDS011;9224;52.422;13.024;2024-03-07T08:22:43;305.13;;;148.57;;
18196;SDS011;9224;52.422;13.024;2024-03-07T08:25:10;312.40;;;149.63;;
18196;SDS011;9224;52.422;13.024;2024-03-07T08:27:38;317.73;;;152.60;;
18196;SDS011;9224;52.422;13.024;2024-03-07T08:30:06;320.50;;;153.53;;
18196;SDS011;9224;52.422;13.024;2024-03-07T08:32:33;352.43;;;157.80;;
18196;SDS011;9224;52.422;13.024;2024-03-07T08:35:02;333.13;;;153.30;;
18196;SDS011;9224;52.422;13.024;2024-03-07T08:37:33;312.67;;;151.67;;
18196;SDS011;9224;52.422;13.024;2024-03-07T08:40:01;308.67;;;150.07;;
18196;SDS011;9224;52.422;13.024;2024-03-07T08:42:31;304.47;;;149.13;;
18196;SDS011;9224;52.422;13.024;2024-03-07T08:44:59;309.20;;;149.47;;
18196;SDS011;9224;52.422;13.024;2024-03-07T08:47:25;299.23;;;148.13;;
18196;SDS011;9224;52.422;13.024;2024-03-07T08:49:53;306.83;;;149.30;;
18196;SDS011;9224;52.422;13.024;2024-03-07T08:52:20;321.30;;;152.43;;
18196;SDS011;9224;52.422;13.024;2024-03-07T08:54:48;317.57;;;148.43;;
18196;SDS011;9224;52.422;13.024;2024-03-07T08:57:15;330.77;;;151.40;;
18196;SDS011;9224;52.422;13.024;2024-03-07T08:59:45;324.87;;;150.33;;
18196;SDS011;9224;52.422;13.024;2024-03-07T09:02:12;311.77;;;146.53;;
18196;SDS011;9224;52.422;13.024;2024-03-07T09:04:39;312.60;;;149.43;;
18196;SDS011;9224;52.422;13.024;2024-03-07T09:07:06;310.83;;;147.67;;
18196;SDS011;9224;52.422;13.024;2024-03-07T09:09:33;319.00;;;149.40;;
18196;SDS011;9224;52.422;13.024;2024-03-07T09:12:01;321.47;;;147.33;;
18196;SDS011;9224;52.422;13.024;2024-03-07T09:14:28;331.53;;;150.27;;
18196;SDS011;9224;52.422;13.024;2024-03-07T09:16:55;355.00;;;153.03;;
18196;SDS011;9224;52.422;13.024;2024-03-07T09:19:22;439.27;;;178.17;;
18196;SDS011;9224;52.422;13.024;2024-03-07T09:21:50;438.93;;;176.87;;
18196;SDS011;9224;52.422;13.024;2024-03-07T09:24:18;509.60;;;197.83;;
18196;SDS011;9224;52.422;13.024;2024-03-07T09:26:47;641.07;;;286.17;;
18196;SDS011;9224;52.422;13.024;2024-03-07T09:29:16;434.83;;;174.67;;
18196;SDS011;9224;52.422;13.024;2024-03-07T09:31:43;480.97;;;191.00;;
18196;SDS011;9224;52.422;13.024;2024-03-07T09:34:10;490.97;;;191.77;;
18196;SDS011;9224;52.422;13.024;2024-03-07T09:36:38;799.40;;;499.53;;
18196;SDS011;9224;52.422;13.024;2024-03-07T09:39:05;568.47;;;230.87;;
18196;SDS011;9224;52.422;13.024;2024-03-07T09:41:33;974.40;;;258.17;;
18196;SDS011;9224;52.422;13.024;2024-03-07T09:44:00;543.33;;;214.50;;
18196;SDS011;9224;52.422;13.024;2024-03-07T09:46:29;716.63;;;372.43;;
18196;SDS011;9224;52.422;13.024;2024-03-07T09:48:57;794.43;;;495.60;;
18196;SDS011;9224;52.422;13.024;2024-03-07T09:51:24;530.77;;;213.60;;
18196;SDS011;9224;52.422;13.024;2024-03-07T09:53:52;629.93;;;274.07;;
18196;SDS011;9224;52.422;13.024;2024-03-07T09:56:20;624.83;;;277.60;;
18196;SDS011;9224;52.422;13.024;2024-03-07T09:58:48;652.00;;;301.03;;
18196;SDS011;9224;52.422;13.024;2024-03-07T10:01:15;994.10;;;330.20;;
18196;SDS011;9224;52.422;13.024;2024-03-07T10:03:48;698.20;;;351.40;;
18196;SDS011;9224;52.422;13.024;2024-03-07T10:06:16;505.00;;;200.83;;
18196;SDS011;9224;52.422;13.024;2024-03-07T10:08:43;528.13;;;215.83;;
18196;SDS011;9224;52.422;13.024;2024-03-07T10:11:10;745.57;;;422.97;;
18196;SDS011;9224;52.422;13.024;2024-03-07T10:13:39;527.07;;;215.20;;
18196;SDS011;9224;52.422;13.024;2024-03-07T10:16:06;549.10;;;230.17;;
18196;SDS011;9224;52.422;13.024;2024-03-07T10:18:35;583.67;;;252.07;;
18196;SDS011;9224;52.422;13.024;2024-03-07T10:21:09;622.07;;;277.77;;
18196;SDS011;9224;52.422;13.024;2024-03-07T10:23:36;542.27;;;222.70;;
18196;SDS011;9224;52.422;13.024;2024-03-07T10:26:04;340.93;;;151.30;;
18196;SDS011;9224;52.422;13.024;2024-03-07T10:28:30;417.83;;;167.23;;
18196;SDS011;9224;52.422;13.024;2024-03-07T10:30:58;425.47;;;173.57;;
18196;SDS011;9224;52.422;13.024;2024-03-07T10:33:26;408.97;;;169.73;;
18196;SDS011;9224;52.422;13.024;2024-03-07T10:35:53;372.57;;;159.67;;
18196;SDS011;9224;52.422;13.024;2024-03-07T10:38:21;379.20;;;161.27;;
18196;SDS011;9224;52.422;13.024;2024-03-07T10:40:48;390.40;;;165.53;;
18196;SDS011;9224;52.422;13.024;2024-03-07T10:43:20;455.80;;;185.33;;
18196;SDS011;9224;52.422;13.024;2024-03-07T10:45:47;406.67;;;170.50;;
18196;SDS011;9224;52.422;13.024;2024-03-07T10:48:17;432.73;;;181.77;;
18196;SDS011;9224;52.422;13.024;2024-03-07T10:50:51;350.93;;;154.47;;
18196;SDS011;9224;52.422;13.024;2024-03-07T10:53:28;411.60;;;174.30;;
18196;SDS011;9224;52.422;13.024;2024-03-07T10:58:46;597.53;;;262.63;;
18196;SDS011;9224;52.422;13.024;2024-03-07T11:01:18;675.57;;;336.47;;
18196;SDS011;9224;52.422;13.024;2024-03-07T11:03:46;607.67;;;269.20;;
18196;SDS011;9224;52.422;13.024;2024-03-07T11:06:19;595.17;;;262.47;;
18196;SDS011;9224;52.422;13.024;2024-03-07T11:08:58;596.90;;;266.37;;
18196;SDS011;9224;52.422;13.024;2024-03-07T11:11:34;616.37;;;278.37;;
18196;SDS011;9224;52.422;13.024;2024-03-07T11:14:18;607.67;;;266.20;;
18196;SDS011;9224;52.422;13.024;2024-03-07T11:16:56;593.60;;;258.70;;
18196;SDS011;9224;52.422;13.024;2024-03-07T11:19:29;285.47;;;145.03;;
18196;SDS011;9224;52.422;13.024;2024-03-07T11:22:05;249.57;;;138.90;;
18196;SDS011;9224;52.422;13.024;2024-03-07T11:24:48;272.80;;;143.53;;
18196;SDS011;9224;52.422;13.024;2024-03-07T11:27:40;230.20;;;135.57;;
18196;SDS011;9224;52.422;13.024;2024-03-07T11:30:24;291.80;;;146.90;;
18196;SDS011;9224;52.422;13.024;2024-03-07T11:32:54;247.80;;;140.50;;
18196;SDS011;9224;52.422;13.024;2024-03-07T11:35:30;264.90;;;141.87;;
18196;SDS011;9224;52.422;13.024;2024-03-07T11:38:01;283.40;;;144.27;;
18196;SDS011;9224;52.422;13.024;2024-03-07T11:40:44;256.70;;;139.70;;
18196;SDS011;9224;52.422;13.024;2024-03-07T11:43:12;295.47;;;146.73;;
18196;SDS011;9224;52.422;13.024;2024-03-07T11:45:39;307.57;;;151.07;;
18196;SDS011;9224;52.422;13.024;2024-03-07T11:48:10;344.70;;;157.77;;
18196;SDS011;9224;52.422;13.024;2024-03-07T11:50:37;333.67;;;156.43;;
18196;SDS011;9224;52.422;13.024;2024-03-07T11:53:04;348.43;;;158.97;;
18196;SDS011;9224;52.422;13.024;2024-03-07T11:55:32;339.23;;;157.97;;
18196;SDS011;9224;52.422;13.024;2024-03-07T11:58:08;296.97;;;148.70;;
18196;SDS011;9224;52.422;13.024;2024-03-07T12:00:38;319.13;;;153.13;;
18196;SDS011;9224;52.422;13.024;2024-03-07T12:03:07;327.30;;;154.63;;
18196;SDS011;9224;52.422;13.024;2024-03-07T12:05:38;297.90;;;149.77;;
18196;SDS011;9224;52.422;13.024;2024-03-07T12:08:08;339.93;;;157.47;;
18196;SDS011;9224;52.422;13.024;2024-03-07T12:10:36;315.47;;;153.50;;
18196;SDS011;9224;52.422;13.024;2024-03-07T12:13:05;329.23;;;156.03;;
18196;SDS011;9224;52.422;13.024;2024-03-07T12:15:33;300.87;;;149.03;;
18196;SDS011;9224;52.422;13.024;2024-03-07T12:18:01;325.40;;;153.37;;
18196;SDS011;9224;52.422;13.024;2024-03-07T12:20:34;331.67;;;154.67;;
18196;SDS011;9224;52.422;13.024;2024-03-07T12:23:02;289.53;;;145.73;;
18196;SDS011;9224;52.422;13.024;2024-03-07T12:25:30;392.10;;;169.67;;
18196;SDS011;9224;52.422;13.024;2024-03-07T12:28:04;301.50;;;148.80;;
18196;SDS011;9224;52.422;13.024;2024-03-07T12:30:38;279.27;;;143.37;;
18196;SDS011;9224;52.422;13.024;2024-03-07T12:33:14;294.80;;;146.47;;
18196;SDS011;9224;52.422;13.024;2024-03-07T12:35:43;296.73;;;149.40;;
18196;SDS011;9224;52.422;13.024;2024-03-07T12:38:39;297.07;;;148.30;;
18196;SDS011;9224;52.422;13.024;2024-03-07T12:41:27;334.17;;;154.73;;
18196;SDS011;9224;52.422;13.024;2024-03-07T12:43:58;328.13;;;155.77;;
18196;SDS011;9224;52.422;13.024;2024-03-07T12:46:29;288.97;;;147.30;;
18196;SDS011;9224;52.422;13.024;2024-03-07T12:48:58;266.23;;;143.00;;
18196;SDS011;9224;52.422;13.024;2024-03-07T12:51:25;293.17;;;149.27;;
18196;SDS011;9224;52.422;13.024;2024-03-07T12:53:52;270.40;;;144.60;;
18196;SDS011;9224;52.422;13.024;2024-03-07T12:56:19;249.53;;;141.50;;
18196;SDS011;9224;52.422;13.024;2024-03-07T12:58:50;238.80;;;139.77;;
18196;SDS011;9224;52.422;13.024;2024-03-07T13:01:18;232.93;;;138.87;;
18196;SDS011;9224;52.422;13.024;2024-03-07T13:03:47;241.07;;;138.93;;
18196;SDS011;9224;52.422;13.024;2024-03-07T13:06:14;235.13;;;138.83;;
18196;SDS011;9224;52.422;13.024;2024-03-07T13:08:44;240.10;;;140.00;;
18196;SDS011;9224;52.422;13.024;2024-03-07T13:11:11;250.13;;;141.37;;
18196;SDS011;9224;52.422;13.024;2024-03-07T13:13:38;271.03;;;144.97;;
18196;SDS011;9224;52.422;13.024;2024-03-07T13:16:05;275.50;;;144.30;;
18196;SDS011;9224;52.422;13.024;2024-03-07T13:18:32;261.20;;;142.43;;
18196;SDS011;9224;52.422;13.024;2024-03-07T13:21:00;247.83;;;140.10;;
18196;SDS011;9224;52.422;13.024;2024-03-07T13:23:28;274.37;;;144.33;;
18196;SDS011;9224;52.422;13.024;2024-03-07T13:25:57;262.23;;;142.77;;
18196;SDS011;9224;52.422;13.024;2024-03-07T13:28:24;292.40;;;148.20;;
18196;SDS011;9224;52.422;13.024;2024-03-07T13:30:53;269.57;;;144.50;;
18196;SDS011;9224;52.422;13.024;2024-03-07T13:33:20;241.90;;;138.20;;
18196;SDS011;9224;52.422;13.024;2024-03-07T13:35:49;245.70;;;140.10;;
18196;SDS011;9224;52.422;13.024;2024-03-07T13:38:18;235.20;;;138.87;;
18196;SDS011;9224;52.422;13.024;2024-03-07T13:40:45;260.07;;;142.10;;
18196;SDS011;9224;52.422;13.024;2024-03-07T13:43:14;240.60;;;140.77;;
18196;SDS011;9224;52.422;13.024;2024-03-07T13:45:42;249.60;;;143.17;;
18196;SDS011;9224;52.422;13.024;2024-03-07T13:48:10;245.20;;;143.53;;
18196;SDS011;9224;52.422;13.024;2024-03-07T13:50:38;261.47;;;145.90;;
18196;SDS011;9224;52.422;13.024;2024-03-07T13:53:06;257.53;;;146.43;;
18196;SDS011;9224;52.422;13.024;2024-03-07T13:55:50;241.20;;;142.07;;
18196;SDS011;9224;52.422;13.024;2024-03-07T13:58:25;257.80;;;145.77;;
18196;SDS011;9224;52.422;13.024;2024-03-07T14:01:04;255.97;;;144.33;;
18196;SDS011;9224;52.422;13.024;2024-03-07T14:03:53;261.27;;;147.03;;
18196;SDS011;9224;52.422;13.024;2024-03-07T14:06:42;241.73;;;143.10;;